createdAt,value
2019-02-20T00:01:14.416Z,10.63
2019-02-20T00:03:44.735Z,12.50
2019-02-20T00:06:15.037Z,9.57
2019-02-20T00:08:45.732Z,13.17
2019-02-20T00:11:16.048Z,12.07
2019-02-20T00:13:47.860Z,12.73
2019-02-20T00:16:18.342Z,11.70
2019-02-20T00:18:49.082Z,13.20
2019-02-20T00:21:19.430Z,12.77
2019-02-20T00:23:49.851Z,12.17
2019-02-20T00:26:20.141Z,10.33
2019-02-20T00:28:50.472Z,12.37
2019-02-20T00:31:20.726Z,7.73
2019-02-20T00:33:52.599Z,13.50
2019-02-20T00:36:22.865Z,11.77
2019-02-20T00:38:53.261Z,12.87
2019-02-20T00:41:23.791Z,13.43
2019-02-20T00:44:17.216Z,10.80
2019-02-20T00:47:06.813Z,13.03
2019-02-20T00:49:40.523Z,12.13
2019-02-20T00:52:23.525Z,12.93
2019-02-20T00:54:53.894Z,13.30
2019-02-20T00:57:24.185Z,11.17
2019-02-20T00:59:54.449Z,8.77
2019-02-20T01:02:27.560Z,11.47
2019-02-20T01:04:57.851Z,15.40
2019-02-20T01:07:28.200Z,13.87
2019-02-20T01:09:58.588Z,11.17
2019-02-20T01:12:29.179Z,13.23
2019-02-20T01:14:59.590Z,10.63
2019-02-20T01:17:32.980Z,10.53
2019-02-20T01:20:03.364Z,20.03
2019-02-20T01:22:33.974Z,13.50
2019-02-20T01:25:04.391Z,10.50
2019-02-20T01:27:34.700Z,13.50
2019-02-20T01:30:05.300Z,15.97
2019-02-20T01:32:37.170Z,14.87
2019-02-20T01:35:07.744Z,12.30
2019-02-20T01:37:37.995Z,9.37
2019-02-20T01:40:08.356Z,17.70
2019-02-20T01:42:38.693Z,11.67
2019-02-20T01:45:09.311Z,15.00
2019-02-20T01:47:39.953Z,14.20
2019-02-20T01:50:11.839Z,15.83
2019-02-20T01:52:42.138Z,10.43
2019-02-20T01:55:12.664Z,15.07
2019-02-20T01:57:43.332Z,8.83
2019-02-20T02:00:13.812Z,15.93
2019-02-20T02:02:44.508Z,9.43
2019-02-20T02:05:15.923Z,14.90
2019-02-20T02:07:46.830Z,8.73
2019-02-20T02:10:17.063Z,16.07
2019-02-20T02:12:47.787Z,13.57
2019-02-20T02:15:20.587Z,10.70
2019-02-20T02:17:50.106Z,12.37
2019-02-20T02:20:20.411Z,17.47
2019-02-20T02:22:50.759Z,9.00
2019-02-20T02:25:21.615Z,13.73
2019-02-20T02:27:52.087Z,12.33
2019-02-20T02:30:22.801Z,13.60
2019-02-20T02:32:53.222Z,10.43
2019-02-20T02:35:23.581Z,12.50
2019-02-20T02:37:53.878Z,14.00
2019-02-20T02:40:24.258Z,9.83
2019-02-20T02:42:55.607Z,9.63
2019-02-20T02:45:25.927Z,13.90
2019-02-20T02:47:56.245Z,14.67
2019-02-20T02:50:27.571Z,19.13
2019-02-20T02:52:57.825Z,14.00
2019-02-20T02:55:29.391Z,10.93
2019-02-20T02:57:59.675Z,13.77
2019-02-20T03:00:30.081Z,11.90
2019-02-20T03:03:00.330Z,14.23
2019-02-20T03:05:30.619Z,12.20
2019-02-20T03:08:00.847Z,13.57
2019-02-20T03:10:31.274Z,16.10
2019-02-20T03:13:01.752Z,14.27
2019-02-20T03:15:34.073Z,13.10
2019-02-20T03:18:04.316Z,12.10
2019-02-20T03:20:34.732Z,17.10
2019-02-20T03:23:04.969Z,13.30
2019-02-20T03:25:35.385Z,13.30
2019-02-20T03:28:05.634Z,17.47
2019-02-20T03:30:35.940Z,11.50
2019-02-20T03:33:06.205Z,13.83
2019-02-20T03:35:36.701Z,14.73
2019-02-20T03:38:07.152Z,13.03
2019-02-20T03:40:37.598Z,15.67
2019-02-20T03:43:08.009Z,11.23
2019-02-20T03:45:38.319Z,12.70
2019-02-20T03:48:08.599Z,12.63
2019-02-20T03:50:38.897Z,16.53
2019-02-20T03:53:09.222Z,11.70
2019-02-20T03:55:39.749Z,12.87
2019-02-20T03:58:10.038Z,14.73
2019-02-20T04:00:40.308Z,16.13
2019-02-20T04:03:10.726Z,11.13
2019-02-20T04:05:41.136Z,13.63
2019-02-20T04:08:11.426Z,12.03
2019-02-20T04:10:41.667Z,16.27
2019-02-20T04:13:11.918Z,11.70
2019-02-20T04:15:42.356Z,12.50
2019-02-20T04:18:12.687Z,14.53
2019-02-20T04:20:42.988Z,13.77
2019-02-20T04:23:14.246Z,15.97
2019-02-20T04:25:46.093Z,15.43
2019-02-20T04:28:16.356Z,19.80
2019-02-20T04:30:46.608Z,12.10
2019-02-20T04:33:16.893Z,15.77
2019-02-20T04:35:47.158Z,15.93
2019-02-20T04:38:17.478Z,13.83
2019-02-20T04:40:49.355Z,12.83
2019-02-20T04:43:19.646Z,16.93
2019-02-20T04:45:51.746Z,12.63
2019-02-20T04:48:22.249Z,11.37
2019-02-20T04:50:52.529Z,14.70
2019-02-20T04:53:22.884Z,14.77
2019-02-20T04:55:53.137Z,15.73
2019-02-20T04:58:23.943Z,15.17
2019-02-20T05:00:54.249Z,11.73
2019-02-20T05:03:24.737Z,11.73
2019-02-20T05:05:55.094Z,14.90
2019-02-20T05:08:25.416Z,14.23
2019-02-20T05:10:55.687Z,15.67
2019-02-20T05:13:26.060Z,13.90
2019-02-20T05:15:56.352Z,16.37
2019-02-20T05:18:26.629Z,13.70
2019-02-20T05:20:56.922Z,12.33
2019-02-20T05:23:27.251Z,15.97
2019-02-20T05:25:57.673Z,14.80
2019-02-20T05:28:28.104Z,15.63
2019-02-20T05:31:00.317Z,15.57
2019-02-20T05:33:30.720Z,19.10
2019-02-20T05:36:01.189Z,17.63
2019-02-20T05:38:31.562Z,16.77
2019-02-20T05:41:02.293Z,17.07
2019-02-20T05:43:34.327Z,19.63
2019-02-20T05:46:05.321Z,16.93
2019-02-20T05:48:35.707Z,16.17
2019-02-20T05:51:06.103Z,13.27
2019-02-20T05:53:36.355Z,14.07
2019-02-20T05:56:06.823Z,17.00
2019-02-20T05:58:37.102Z,18.13
2019-02-20T06:01:08.992Z,11.83
2019-02-20T06:03:39.265Z,20.87
2019-02-20T06:06:09.547Z,15.63
2019-02-20T06:08:39.975Z,15.23
2019-02-20T06:11:14.937Z,15.70
2019-02-20T06:13:42.276Z,13.87
2019-02-20T06:16:16.034Z,16.40
2019-02-20T06:18:46.305Z,15.97
2019-02-20T06:21:16.617Z,22.67
2019-02-20T06:23:46.870Z,17.40
2019-02-20T06:26:17.140Z,17.40
2019-02-20T06:28:47.462Z,20.17
2019-02-20T06:31:17.837Z,16.53
2019-02-20T06:33:48.192Z,17.67
2019-02-20T06:36:19.003Z,17.53
2019-02-20T06:38:49.225Z,15.07
2019-02-20T06:41:19.503Z,16.90
2019-02-20T06:43:49.934Z,20.60
2019-02-20T06:46:20.342Z,18.20
2019-02-20T06:48:50.601Z,20.27
2019-02-20T06:51:21.852Z,17.60
2019-02-20T06:53:52.210Z,15.90
2019-02-20T06:56:22.733Z,21.90
2019-02-20T06:58:53.056Z,20.83
2019-02-20T07:01:23.523Z,19.77
2019-02-20T07:03:53.762Z,18.77
2019-02-20T07:06:40.969Z,20.20
2019-02-20T07:09:46.055Z,18.40
2019-02-20T07:12:34.657Z,15.37
2019-02-20T07:15:52.566Z,22.53
2019-02-20T07:18:34.105Z,22.13
2019-02-20T07:21:32.785Z,19.63
2019-02-20T07:24:43.385Z,22.13
2019-02-20T07:27:56.065Z,19.93
2019-02-20T07:30:26.494Z,21.07
2019-02-20T07:32:56.803Z,22.77
2019-02-20T07:35:27.082Z,22.87
2019-02-20T07:37:57.479Z,20.83
2019-02-20T07:40:27.796Z,27.47
2019-02-20T07:42:58.075Z,23.57
2019-02-20T07:45:28.324Z,26.50
2019-02-20T07:47:58.655Z,23.93
2019-02-20T07:50:28.885Z,23.87
2019-02-20T07:52:59.453Z,25.13
2019-02-20T07:55:29.838Z,26.30
2019-02-20T07:58:00.096Z,24.27
2019-02-20T08:00:30.541Z,22.13
2019-02-20T08:03:00.859Z,20.80
2019-02-20T08:05:31.197Z,25.20
2019-02-20T08:08:01.603Z,22.83
2019-02-20T08:10:32.438Z,20.73
2019-02-20T08:13:02.784Z,20.17
2019-02-20T08:15:33.264Z,20.47
2019-02-20T08:18:03.631Z,23.73
2019-02-20T08:20:33.951Z,23.27
2019-02-20T08:23:04.303Z,23.67
2019-02-20T08:25:36.273Z,26.97
2019-02-20T08:28:06.594Z,25.27
2019-02-20T08:30:36.952Z,27.73
2019-02-20T08:33:07.272Z,22.70
2019-02-20T08:35:39.052Z,26.57
2019-02-20T08:38:09.324Z,27.53
2019-02-20T08:40:39.800Z,25.53
2019-02-20T08:43:11.765Z,22.57
2019-02-20T08:45:42.090Z,25.40
2019-02-20T08:48:12.569Z,24.23
2019-02-20T08:50:43.060Z,24.20
2019-02-20T08:53:13.412Z,24.40
2019-02-20T08:55:43.794Z,31.47
2019-02-20T08:58:14.110Z,30.63
2019-02-20T09:00:44.451Z,29.80
2019-02-20T09:03:14.705Z,29.73
2019-02-20T09:05:45.089Z,32.70
2019-02-20T09:08:15.464Z,29.07
2019-02-20T09:10:45.871Z,33.77
2019-02-20T09:13:16.252Z,29.77
2019-02-20T09:15:48.252Z,28.43
2019-02-20T09:18:18.543Z,30.53
2019-02-20T09:20:48.885Z,29.30
2019-02-20T09:23:19.231Z,28.87
2019-02-20T09:25:52.549Z,29.10
2019-02-20T09:28:23.423Z,23.93
2019-02-20T09:30:53.716Z,24.87
2019-02-20T09:33:25.582Z,23.23
2019-02-20T09:35:56.025Z,23.13
2019-02-20T09:38:27.067Z,22.60
2019-02-20T09:40:57.329Z,21.27
2019-02-20T09:43:27.629Z,18.97
2019-02-20T09:45:57.897Z,23.73
2019-02-20T09:48:28.384Z,26.60
2019-02-20T09:50:59.620Z,25.50
2019-02-20T09:53:29.993Z,23.10
2019-02-20T09:56:00.261Z,22.00
2019-02-20T09:58:32.139Z,29.13
2019-02-20T10:01:03.073Z,23.40
2019-02-20T10:03:33.480Z,21.93
2019-02-20T10:06:03.749Z,20.37
2019-02-20T10:08:34.229Z,21.97
2019-02-20T10:11:04.512Z,19.60
2019-02-20T10:13:34.889Z,20.10
2019-02-20T10:16:05.425Z,17.03
2019-02-20T10:18:35.896Z,16.67
2019-02-20T10:21:06.319Z,17.00
2019-02-20T10:23:36.635Z,16.47
2019-02-20T10:26:06.930Z,16.57
2019-02-20T10:28:37.265Z,15.47
2019-02-20T10:31:07.636Z,18.73
2019-02-20T10:33:39.305Z,16.97
2019-02-20T10:36:09.662Z,15.70
2019-02-20T10:38:40.191Z,15.30
2019-02-20T10:41:10.478Z,14.43
2019-02-20T10:43:40.800Z,15.60
2019-02-20T10:46:11.104Z,14.20
2019-02-20T10:48:41.493Z,12.73
2019-02-20T10:51:11.930Z,13.00
2019-02-20T10:53:42.221Z,15.00
2019-02-20T10:56:12.447Z,13.77
2019-02-20T10:58:42.698Z,13.10
2019-02-20T11:01:14.657Z,13.40
2019-02-20T11:03:45.000Z,12.57
2019-02-20T11:06:15.311Z,14.60
2019-02-20T11:08:45.618Z,12.53
2019-02-20T11:11:15.914Z,15.47
2019-02-20T11:13:46.283Z,14.57
2019-02-20T11:16:16.669Z,15.47
2019-02-20T11:18:47.026Z,15.43
2019-02-20T11:21:17.462Z,14.87
2019-02-20T11:23:47.834Z,16.63
2019-02-20T11:26:19.134Z,13.13
2019-02-20T11:28:49.413Z,11.77
2019-02-20T11:31:19.662Z,14.13
2019-02-20T11:33:49.934Z,15.77
2019-02-20T11:36:20.257Z,14.87
2019-02-20T11:38:50.551Z,12.47
2019-02-20T11:41:20.966Z,13.67
2019-02-20T11:43:51.258Z,12.27
2019-02-20T11:46:21.635Z,13.47
2019-02-20T11:48:52.005Z,14.93
2019-02-20T11:51:22.333Z,11.67
2019-02-20T11:53:52.629Z,11.97
2019-02-20T11:56:26.599Z,11.90
2019-02-20T11:58:55.064Z,14.60
2019-02-20T12:01:25.324Z,13.50
2019-02-20T12:03:55.770Z,12.57
2019-02-20T12:06:26.129Z,13.97
2019-02-20T12:08:56.439Z,13.27
2019-02-20T12:11:26.689Z,13.27
2019-02-20T12:13:56.982Z,11.73
2019-02-20T12:16:27.350Z,11.57
2019-02-20T12:18:57.733Z,9.00
2019-02-20T12:21:28.204Z,10.20
2019-02-20T12:23:58.521Z,11.90
2019-02-20T12:26:34.938Z,12.37
2019-02-20T12:29:00.870Z,9.40
2019-02-20T12:31:31.297Z,10.00
2019-02-20T12:34:01.733Z,11.90
2019-02-20T12:36:33.059Z,10.13
2019-02-20T12:39:04.477Z,9.53
2019-02-20T12:41:36.838Z,7.37
2019-02-20T12:44:07.262Z,11.13
2019-02-20T12:46:37.585Z,7.37
2019-02-20T12:49:07.964Z,7.53
2019-02-20T12:51:38.292Z,7.77
2019-02-20T12:54:08.563Z,8.43
2019-02-20T12:56:44.079Z,10.03
2019-02-20T12:59:11.042Z,9.10
2019-02-20T13:01:41.903Z,7.63
2019-02-20T13:04:14.356Z,7.40
2019-02-20T13:06:44.926Z,8.43
2019-02-20T13:09:16.199Z,8.07
2019-02-20T13:11:46.426Z,8.40
2019-02-20T13:14:17.722Z,7.27
2019-02-20T13:16:49.664Z,7.63
2019-02-20T13:19:20.276Z,8.93
2019-02-20T13:21:51.545Z,5.40
2019-02-20T13:24:21.861Z,7.43
2019-02-20T13:26:53.201Z,6.47
2019-02-20T13:29:23.679Z,5.07
2019-02-20T13:31:54.039Z,6.10
2019-02-20T13:34:24.335Z,7.43
2019-02-20T13:36:54.694Z,6.67
2019-02-20T13:39:24.998Z,6.80
2019-02-20T13:41:55.402Z,8.60
2019-02-20T13:44:28.705Z,8.67
2019-02-20T13:47:01.005Z,7.13
2019-02-20T13:49:31.318Z,8.47
2019-02-20T13:52:01.838Z,6.93
2019-02-20T13:54:32.381Z,8.10
2019-02-20T13:57:03.159Z,8.27
2019-02-20T13:59:34.275Z,10.40
2019-02-20T14:02:04.678Z,10.43
2019-02-20T14:04:35.012Z,7.37
2019-02-20T14:07:05.545Z,11.63
2019-02-20T14:09:36.129Z,7.03
2019-02-20T14:12:07.884Z,7.83
2019-02-20T14:14:38.557Z,8.60
2019-02-20T14:17:08.915Z,8.40
2019-02-20T14:19:39.297Z,7.70
2019-02-20T14:22:09.635Z,9.40
2019-02-20T14:24:40.076Z,7.43
2019-02-20T14:27:11.330Z,10.80
2019-02-20T14:29:43.386Z,9.93
2019-02-20T14:32:14.089Z,7.40
2019-02-20T14:34:45.519Z,8.17
2019-02-20T14:37:16.095Z,7.60
2019-02-20T14:39:46.379Z,8.70
2019-02-20T14:42:21.033Z,8.63
2019-02-20T14:44:51.472Z,7.57
2019-02-20T14:47:21.845Z,10.43
2019-02-20T14:49:52.238Z,7.07
2019-02-20T14:52:22.686Z,6.47
2019-02-20T14:54:52.948Z,7.50
2019-02-20T14:57:24.134Z,8.00
2019-02-20T14:59:54.682Z,10.50
2019-02-20T15:02:25.065Z,6.40
2019-02-20T15:04:56.619Z,7.70
2019-02-20T15:07:27.042Z,8.77
2019-02-20T15:10:00.589Z,10.37
2019-02-20T15:12:30.935Z,8.87
2019-02-20T15:15:10.139Z,9.27
2019-02-20T15:17:34.701Z,7.33
2019-02-20T15:20:06.746Z,8.57
2019-02-20T15:22:37.526Z,9.33
2019-02-20T15:25:08.337Z,8.80
2019-02-20T15:27:38.668Z,8.97
2019-02-20T15:30:12.272Z,10.93
2019-02-20T15:32:42.585Z,9.37
2019-02-20T15:35:13.025Z,8.93
2019-02-20T15:37:43.390Z,8.90
2019-02-20T15:40:13.966Z,8.73
2019-02-20T15:42:44.785Z,8.10
2019-02-20T15:45:15.257Z,10.80
2019-02-20T15:47:45.747Z,9.23
2019-02-20T15:50:16.424Z,9.57
2019-02-20T15:52:46.848Z,9.63
2019-02-20T15:55:17.160Z,12.80
2019-02-20T15:57:47.601Z,9.00
2019-02-20T16:00:19.820Z,9.07
2019-02-20T16:02:50.156Z,10.93
2019-02-20T16:05:31.311Z,11.53
2019-02-20T16:08:04.787Z,8.47
2019-02-20T16:10:35.286Z,8.03
2019-02-20T16:13:05.928Z,9.70
2019-02-20T16:15:36.658Z,10.10
2019-02-20T16:18:09.790Z,10.23
2019-02-20T16:20:40.276Z,7.50
2019-02-20T16:23:10.571Z,9.67
2019-02-20T16:25:40.950Z,9.23
2019-02-20T16:28:11.390Z,10.37
2019-02-20T16:30:41.827Z,9.43
2019-02-20T16:33:12.368Z,10.07
2019-02-20T16:35:48.257Z,8.63
2019-02-20T16:38:18.357Z,7.80
2019-02-20T16:40:48.778Z,8.10
2019-02-20T16:43:19.324Z,7.93
2019-02-20T16:45:56.375Z,9.37
2019-02-20T16:48:29.046Z,10.57
2019-02-20T16:51:02.308Z,9.13
2019-02-20T16:53:32.982Z,9.50
2019-02-20T16:56:03.681Z,8.80
2019-02-20T16:58:34.704Z,7.43
2019-02-20T17:01:06.427Z,8.40
2019-02-20T17:03:36.982Z,9.97
2019-02-20T17:06:07.954Z,8.90
2019-02-20T17:08:39.281Z,9.97
2019-02-20T17:11:09.718Z,10.43
2019-02-20T17:13:40.208Z,8.03
2019-02-20T17:16:11.468Z,10.07
2019-02-20T17:18:43.705Z,6.73
2019-02-20T17:21:14.791Z,7.67
2019-02-20T17:23:46.229Z,8.83
2019-02-20T17:26:16.596Z,7.63
2019-02-20T17:28:47.994Z,9.63
2019-02-20T17:31:18.360Z,7.40
2019-02-20T17:33:48.863Z,7.03
2019-02-20T17:36:19.362Z,7.70
2019-02-20T17:38:50.051Z,7.47
2019-02-20T17:41:20.427Z,7.77
2019-02-20T17:43:53.507Z,8.47
2019-02-20T17:46:23.971Z,9.37
2019-02-20T17:48:54.780Z,11.40
2019-02-20T17:51:25.127Z,7.30
2019-02-20T17:53:56.646Z,9.07
2019-02-20T17:56:26.998Z,8.77
2019-02-20T17:59:00.174Z,12.27
2019-02-20T18:01:30.727Z,9.87
2019-02-20T18:04:01.210Z,9.70
2019-02-20T18:06:32.702Z,7.70
2019-02-20T18:09:03.098Z,10.90
2019-02-20T18:11:35.021Z,9.77
2019-02-20T18:14:06.035Z,8.33
2019-02-20T18:16:36.334Z,8.67
2019-02-20T18:19:06.677Z,9.10
2019-02-20T18:21:37.248Z,9.73
2019-02-20T18:24:08.377Z,9.63
2019-02-20T18:26:42.288Z,8.67
2019-02-20T18:29:12.925Z,10.20
2019-02-20T18:31:43.460Z,9.17
2019-02-20T18:34:13.902Z,10.13
2019-02-20T18:36:44.347Z,10.33
2019-02-20T18:39:14.636Z,11.67
2019-02-20T18:41:45.071Z,11.27
2019-02-20T18:44:15.465Z,12.73
2019-02-20T18:46:50.238Z,12.00
2019-02-20T18:49:21.255Z,11.53
2019-02-20T18:51:56.080Z,8.93
2019-02-20T18:54:26.506Z,9.43
2019-02-20T18:56:56.993Z,10.10
2019-02-20T18:59:28.967Z,8.27
2019-02-20T19:01:59.356Z,8.70
2019-02-20T19:04:29.743Z,8.27
2019-02-20T19:07:04.722Z,10.00
2019-02-20T19:09:35.048Z,10.00
2019-02-20T19:12:34.142Z,13.67
2019-02-20T19:15:27.460Z,14.37
2019-02-20T19:19:09.178Z,12.90
2019-02-20T19:22:21.097Z,9.23
2019-02-20T19:25:53.189Z,10.53
2019-02-20T19:28:57.792Z,9.13
2019-02-20T19:32:08.876Z,11.27
2019-02-20T19:35:17.064Z,10.33
2019-02-20T19:38:14.183Z,14.00
2019-02-20T19:41:24.239Z,13.43
2019-02-20T19:44:15.609Z,11.87
2019-02-20T19:47:10.330Z,16.43
2019-02-20T19:50:33.421Z,12.60
2019-02-20T19:53:56.706Z,14.80
2019-02-20T19:57:09.654Z,19.63
2019-02-20T20:00:30.149Z,15.07
2019-02-20T20:03:29.128Z,13.93
2019-02-20T20:06:35.894Z,13.83
2019-02-20T20:09:41.481Z,14.03
2019-02-20T20:13:04.651Z,15.53
2019-02-20T20:16:00.422Z,14.60
2019-02-20T20:19:14.916Z,15.67
2019-02-20T20:22:07.114Z,14.27
2019-02-20T20:25:05.755Z,15.33
2019-02-20T20:28:10.585Z,15.80
2019-02-20T20:31:24.914Z,16.97
2019-02-20T20:34:28.176Z,16.90
2019-02-20T20:37:16.351Z,16.27
2019-02-20T20:40:33.348Z,14.37
2019-02-20T20:43:23.793Z,15.10
2019-02-20T20:46:43.169Z,14.60
2019-02-20T20:49:49.416Z,16.47
2019-02-20T20:53:03.696Z,19.03
2019-02-20T20:56:24.009Z,17.40
2019-02-20T20:59:43.253Z,17.07
2019-02-20T21:02:36.050Z,16.57
2019-02-20T21:05:53.224Z,19.80
2019-02-20T21:08:46.032Z,17.57
2019-02-20T21:11:55.122Z,17.10
2019-02-20T21:14:34.109Z,15.63
2019-02-20T21:17:53.427Z,16.37
2019-02-20T21:21:00.631Z,16.90
2019-02-20T21:24:23.824Z,17.07
2019-02-20T21:27:29.461Z,16.23
2019-02-20T21:30:13.598Z,17.47
2019-02-20T21:33:20.165Z,14.33
2019-02-20T21:36:37.649Z,14.33
2019-02-20T21:39:49.929Z,15.67
2019-02-20T21:42:58.571Z,16.93
2019-02-20T21:45:47.624Z,17.43
2019-02-20T21:49:10.965Z,13.87
2019-02-20T21:52:13.093Z,15.17
2019-02-20T21:55:28.005Z,16.20
2019-02-20T21:58:34.841Z,15.67
2019-02-20T22:01:30.107Z,15.87
2019-02-20T22:04:26.310Z,16.97
2019-02-20T22:07:23.638Z,18.33
2019-02-20T22:10:26.616Z,15.20
2019-02-20T22:13:53.039Z,16.00
2019-02-20T22:17:07.300Z,16.00
2019-02-20T22:20:02.713Z,15.60
2019-02-20T22:23:23.540Z,17.77
2019-02-20T22:26:11.197Z,17.57
2019-02-20T22:29:50.106Z,16.93
2019-02-20T22:32:45.232Z,18.63
2019-02-20T22:36:03.885Z,16.57
2019-02-20T22:38:59.115Z,18.23
2019-02-20T22:42:25.060Z,21.30
2019-02-20T22:45:05.404Z,18.10
2019-02-20T22:48:14.197Z,17.17
2019-02-20T22:50:58.715Z,16.97
2019-02-20T22:54:01.443Z,15.77
2019-02-20T22:57:17.410Z,19.67
2019-02-20T23:00:34.137Z,18.27
2019-02-20T23:03:31.655Z,18.50
2019-02-20T23:06:43.608Z,16.13
2019-02-20T23:10:12.634Z,19.53
2019-02-20T23:13:48.489Z,20.83
2019-02-20T23:16:18.791Z,18.20
2019-02-20T23:18:49.361Z,17.13
2019-02-20T23:21:19.750Z,17.90
2019-02-20T23:23:50.403Z,17.70
2019-02-20T23:26:20.642Z,16.13
2019-02-20T23:28:51.445Z,22.03
2019-02-20T23:31:21.749Z,18.53
2019-02-20T23:33:54.873Z,16.20
2019-02-20T23:36:25.225Z,19.43
2019-02-20T23:38:55.509Z,20.20
2019-02-20T23:41:25.818Z,15.60
2019-02-20T23:43:56.125Z,17.80
2019-02-20T23:46:26.426Z,19.80
2019-02-20T23:48:56.727Z,16.83
2019-02-20T23:51:26.943Z,18.70
2019-02-20T23:53:57.188Z,19.60
2019-02-20T23:56:27.679Z,19.50
2019-02-20T23:58:58.054Z,18.63
